Share

Winfield, IA

KIAMTUNI2 Elev 722 ft | 41.07 °N, 91.39 °W | Change Station

Current weather conditions updated 3 minutes ago

Clear
Clear
46.6 °F
Feels Like 43 °F
N
8.0
Wind Variable Wind from ESE
Gusts 8.0 mph
Sunrise 6:20 AM
Sunset 7:50 PM
Moon Waning Gibbous

Today is forecast to be Much Warmer than yesterday.

Pressure 30.25 in
Visibility 10.0 miles
Clouds Clear
Windchill 43 °F
Dew Point 31 °F
Humidity 55%
Rainfall 0.00 in
Snow Depth Not available.
UV 0 out of 16
Pollen 10.10 out of 12
Air Quality Not available.
Flu Activity Sporadic
METAR KMPZ 190455Z AUTO 11008KT 10SM CLR 08/00 A3025 RMK AO2 T00801005

More Conditions Fewer Conditions

Pressure 30.25 in
Visibility 10.0 miles
Clouds Clear
Windchill 43 °F
Dew Point 31 °F
Humidity 55%
Rainfall 0.00 in
Snow Depth Not available.
UV 0 out of 16
Pollen 10.10 out of 12
Air Quality Not available.
Flu Activity Sporadic
METAR KMPZ 190455Z AUTO 11008KT 10SM CLR 08/00 A3025 RMK AO2 T00801005

More Conditions Fewer Conditions

10-Day Weather Forecast

Almanac

Astronomy

Apr. 19, 2014 Rise Set
Actual Time 6:20 AM CDT 7:50 PM CDT
Civil Twilight 5:51 AM CDT 8:18 PM CDT
Nautical Twilight 5:16 AM CDT 8:53 PM CDT
Astronomical Twilight 4:39 AM CDT 9:30 PM CDT
Moon No Moon Rise 9:37 AM CDT
Length of Visible Light 14h 27m
Length of Day
13h 29m
Tomorrow will be 2m 33s longer.
Waning Gibbous, 83% of the Moon is Illuminated
Today
Waning Gibbous
Apr 22
Last Quarter
Apr 29
New
May 6
First Quarter
May 14
Full

Today's Extremes

State Highs State Lows

Community

  • Sunset Silhouettes
    Sunset Silhouettes
  • FL sunset Perico Isle
    FL sunset Perico Isle
  • Cloudy spring view
    Cloudy spring view
  • Old barn
    Old barn
  • What's for Lunch?
    What's for Lunch?

WunderPhotos

Upload Photos

1,702,645 photos uploaded!

WunderBlogs® & News

Nearby

Snow Depth

Station Depth Elevation
No new snow has been reported.

Coastal Water Temperatures

Place Temperature
No Stations Reporting

Earthquake Activity

City Distance Mag. Time & Date
No recent earthquake activity has been reported nearby.
Minimum magnitude displayed is 2.5.

Nearby Weather Stations

Station Location Temp. Windchill Dew Point Humidity Wind Precip. Elev Updated Type
Mt. Union, IA 46.6 °F 43 °F 31 °F 55% ESE  at  8.0 mph 0.00 in / hr 722 ft 12:15 AM CDT Normal
Ron Cutkomp, Columbus City, IA 46.0 °F 46 °F 34 °F 63% ESE  at  2.7 mph - / hr 725 ft 12:12 AM CDT Normal
Purdy Hill (Ken), Columbus Junction, IA 50.2 °F - 34 °F 53% SE  at  1.7 mph - / hr 656 ft 12:17 AM CDT Normal
HADS MISSISSIPPI RIVER AT LOCK & DAM IL, New Boston, IL 51 °F - - - East  at  2 mph 0.00 in / hr 546 ft 11:40 PM CDT MADIS

Show More Stations Show Fewer Stations

What do you think?

We're not finished. Please let us know what you like, what you don't like, and what you are still missing.